Time;durP1;ratioP1;P1;durP2;ratioP2;P2;SDS_P1;SDS_P2;PMS_P1;PMS_P2;Temp;Humidity;BMP_temperature;BMP_pressure;BME280_temperature;BME280_humidity;BME280_pressure;Samples;Min_cycle;Max_cycle;Signal;HPM_P1;HPM_P2
2022/06/02 00:01:45;;;;;;;8.02;6.50;;;10.30;99.90;;;;;;5033857;28;20443;-77
2022/06/02 00:04:37;;;;;;;9.35;6.53;;;10.20;99.90;;;;;;5041587;28;20457;-77
2022/06/02 00:07:10;;;;;;;9.15;6.53;;;10.30;99.90;;;;;;5040502;28;20041;-77
2022/06/02 00:09:36;;;;;;;11.18;6.75;;;10.20;99.90;;;;;;5044143;28;20068;-77
2022/06/02 00:12:11;;;;;;;10.80;6.60;;;10.20;99.90;;;;;;5045485;28;20040;-77
2022/06/02 00:15:01;;;;;;;10.27;6.55;;;10.20;99.90;;;;;;5041603;28;20049;-77
2022/06/02 00:17:41;;;;;;;8.85;5.97;;;10.20;99.90;;;;;;5036050;28;20037;-77
2022/06/02 00:20:18;;;;;;;12.93;6.75;;;10.10;99.90;;;;;;5043556;28;20060;-77
2022/06/02 00:23:21;;;;;;;8.93;6.13;;;10.20;99.90;;;;;;5040919;28;20042;-77
2022/06/02 00:25:50;;;;;;;12.77;7.13;;;10.20;99.90;;;;;;5063358;28;20104;-77
2022/06/02 00:28:21;;;;;;;8.45;6.20;;;10.10;99.90;;;;;;5045178;28;20051;-77
2022/06/02 00:30:56;;;;;;;;;;;10.10;99.90;;;;;;5044956;28;20044;-77
2022/06/02 00:33:38;;;;;;;7.63;6.53;;;10.00;99.90;;;;;;5075551;28;19920;-77
2022/06/02 00:36:30;;;;;;;11.93;6.15;;;10.00;99.90;;;;;;5050190;28;20415;-77
2022/06/02 00:38:59;;;;;;;6.88;5.80;;;10.10;99.90;;;;;;5043156;28;20049;-78
2022/06/02 00:41:46;;;;;;;9.82;6.40;;;10.10;99.90;;;;;;5081526;28;20060;-77
2022/06/02 00:44:27;;;;;;;7.97;6.82;;;10.10;99.90;;;;;;5042786;28;20116;-77
2022/06/02 00:46:59;;;;;;;10.02;6.70;;;10.00;99.90;;;;;;5034088;28;20064;-77
2022/06/02 00:49:58;;;;;;;10.30;6.75;;;10.00;99.90;;;;;;5043132;28;20039;-78
2022/06/02 00:52:47;;;;;;;7.80;6.65;;;10.00;99.90;;;;;;5053283;28;20110;-77
2022/06/02 00:59:02;;;;;;;9.65;6.78;;;10.00;99.90;;;;;;5034058;28;20136;-77
2022/06/02 01:01:32;;;;;;;9.27;6.45;;;10.00;99.90;;;;;;5039955;28;20060;-78
2022/06/02 01:04:00;;;;;;;9.02;7.28;;;10.00;99.90;;;;;;5052928;28;20142;-77
2022/06/02 01:06:40;;;;;;;12.30;7.70;;;9.90;99.90;;;;;;5043796;28;20051;-77
2022/06/02 01:09:19;;;;;;;16.88;7.38;;;10.00;99.90;;;;;;5045870;28;20401;-77
2022/06/02 01:12:02;;;;;;;9.55;7.85;;;10.00;99.90;;;;;;5032282;28;20041;-77
2022/06/02 01:14:37;;;;;;;9.27;7.05;;;9.90;99.90;;;;;;5048902;28;20079;-77
2022/06/02 01:17:30;;;;;;;13.82;7.20;;;9.90;99.90;;;;;;5043124;28;20052;-77
2022/06/02 01:20:05;;;;;;;10.35;7.15;;;9.90;99.90;;;;;;5046595;28;20095;-77
2022/06/02 01:23:28;;;;;;;10.20;7.97;;;9.90;99.90;;;;;;5049330;28;20116;-77
2022/06/02 01:26:12;;;;;;;12.85;7.80;;;9.90;99.90;;;;;;4996970;28;20060;-76
2022/06/02 01:28:50;;;;;;;12.73;7.95;;;9.90;99.90;;;;;;4984347;28;20046;-77
2022/06/02 01:31:30;;;;;;;12.38;8.15;;;9.80;99.90;;;;;;5030062;28;20422;-77
2022/06/02 01:34:14;;;;;;;10.70;8.13;;;9.80;99.90;;;;;;5048228;28;20076;-78
2022/06/02 01:36:44;;;;;;;13.82;7.93;;;9.80;99.90;;;;;;5048702;28;20905;-77
2022/06/02 01:39:31;;;;;;;12.50;8.05;;;9.80;99.90;;;;;;5047473;28;20048;-77
2022/06/02 01:42:17;;;;;;;10.70;7.50;;;9.80;99.90;;;;;;5050110;28;20052;-77
2022/06/02 01:44:58;;;;;;;10.50;8.20;;;9.70;99.90;;;;;;5063911;28;20487;-78
2022/06/02 01:47:33;;;;;;;12.52;7.55;;;9.70;99.90;;;;;;5044471;28;20135;-77
2022/06/02 01:50:41;;;;;;;9.32;7.90;;;9.70;99.90;;;;;;5066943;28;20110;-78
2022/06/02 01:53:25;;;;;;;13.98;7.78;;;9.70;99.90;;;;;;5033820;28;20072;-77
2022/06/02 01:56:36;;;;;;;12.60;7.82;;;9.70;99.90;;;;;;5044938;28;20049;-77
2022/06/02 01:59:39;;;;;;;12.77;8.05;;;9.70;99.90;;;;;;5049454;28;20052;-77
2022/06/02 02:02:30;;;;;;;13.05;8.27;;;9.70;99.90;;;;;;5046377;28;20049;-77
2022/06/02 02:05:21;;;;;;;9.93;6.47;;;9.70;99.90;;;;;;5047513;28;20464;-76
2022/06/02 02:08:05;;;;;;;12.88;7.57;;;9.70;99.90;;;;;;5037682;28;20575;-77
2022/06/02 02:10:36;;;;;;;11.38;7.38;;;9.70;99.90;;;;;;5061666;28;20048;-77
2022/06/02 02:13:27;;;;;;;9.75;7.55;;;9.70;99.90;;;;;;5029422;28;20042;-77
2022/06/02 02:16:04;;;;;;;9.98;6.55;;;9.70;99.90;;;;;;5070937;28;20152;-77
2022/06/02 02:18:41;;;;;;;11.50;7.45;;;9.60;99.90;;;;;;5029902;28;20084;-77
2022/06/02 02:21:32;;;;;;;11.02;7.38;;;9.60;99.90;;;;;;5040115;28;20057;-77
2022/06/02 02:24:04;;;;;;;;;;;9.60;99.90;;;;;;5044524;28;20587;-77
2022/06/02 02:27:00;;;;;;;9.15;6.65;;;9.60;99.90;;;;;;5043894;28;19925;-77
2022/06/02 02:30:03;;;;;;;12.27;7.03;;;9.60;99.90;;;;;;5047404;28;20048;-76
2022/06/02 02:32:50;;;;;;;8.32;6.20;;;9.60;99.90;;;;;;5046492;28;20060;-77
2022/06/02 02:35:25;;;;;;;8.95;6.93;;;9.50;99.90;;;;;;5041128;28;20041;-77
2022/06/02 02:37:57;;;;;;;15.55;7.47;;;9.60;99.90;;;;;;5040177;28;20056;-77
2022/06/02 02:40:39;;;;;;;10.65;5.88;;;9.50;99.90;;;;;;5044558;28;20041;-78
2022/06/02 02:43:25;;;;;;;8.45;6.30;;;9.50;99.90;;;;;;5045370;28;20036;-77
2022/06/02 02:46:17;;;;;;;10.63;6.72;;;9.60;99.90;;;;;;5029948;28;20489;-77
2022/06/02 02:49:14;;;;;;;11.52;6.85;;;9.50;99.90;;;;;;5046405;28;20125;-77
2022/06/02 02:52:00;;;;;;;11.52;6.53;;;9.50;99.90;;;;;;5044576;28;20045;-77
2022/06/02 02:54:53;;;;;;;8.85;6.43;;;9.50;99.90;;;;;;5034984;28;20144;-76
2022/06/02 02:57:42;;;;;;;12.68;6.38;;;9.50;99.90;;;;;;5042725;28;20049;-77
2022/06/02 03:00:25;;;;;;;9.45;6.22;;;9.50;99.90;;;;;;5048405;28;20049;-76
2022/06/02 03:03:17;;;;;;;6.57;5.55;;;9.50;99.90;;;;;;5040746;28;20053;-77
2022/06/02 03:05:59;;;;;;;7.53;6.18;;;9.50;99.90;;;;;;5045549;28;20111;-77
2022/06/02 03:08:46;;;;;;;9.20;5.63;;;9.50;99.90;;;;;;5069567;28;20159;-77
2022/06/02 03:11:36;;;;;;;6.88;4.82;;;9.50;99.90;;;;;;5060665;28;20551;-78
2022/06/02 03:14:35;;;;;;;8.40;4.72;;;9.50;99.90;;;;;;5062768;28;20050;-78
2022/06/02 03:17:19;;;;;;;8.15;5.30;;;9.50;99.90;;;;;;5043516;28;20055;-77
2022/06/02 03:20:00;;;;;;;10.93;5.13;;;9.50;99.90;;;;;;5042584;28;20075;-77
2022/06/02 03:22:57;;;;;;;7.47;4.87;;;9.50;99.90;;;;;;5059809;28;20057;-78
2022/06/02 03:25:47;;;;;;;6.00;4.43;;;9.60;99.90;;;;;;5062034;28;20055;-78
2022/06/02 03:28:28;;;;;;;8.75;4.88;;;9.50;99.90;;;;;;5046035;28;20416;-77
2022/06/02 03:31:10;;;;;;;7.80;4.53;;;9.60;99.90;;;;;;5043733;28;20041;-77
2022/06/02 03:33:48;;;;;;;7.05;5.00;;;9.60;99.90;;;;;;5044508;28;20090;-78
2022/06/02 03:36:53;;;;;;;8.05;4.95;;;9.60;99.90;;;;;;5046605;28;20318;-77
2022/06/02 03:39:57;;;;;;;8.10;5.13;;;9.60;99.90;;;;;;5046197;28;20061;-78
2022/06/02 03:42:22;;;;;;;7.45;4.47;;;9.60;99.90;;;;;;5026602;28;20056;-78
2022/06/02 03:45:14;;;;;;;6.72;5.05;;;9.60;99.90;;;;;;5035454;28;20041;-77
2022/06/02 03:47:49;;;;;;;13.50;5.35;;;9.60;99.90;;;;;;5073247;28;20103;-78
2022/06/02 03:50:33;;;;;;;8.85;4.65;;;9.60;99.90;;;;;;5044122;28;20061;-77
2022/06/02 03:53:17;;;;;;;8.50;5.78;;;9.60;99.90;;;;;;5040708;28;20049;-77
2022/06/02 03:55:51;;;;;;;8.73;4.57;;;9.70;99.90;;;;;;5037224;28;20045;-77
2022/06/02 03:58:35;;;;;;;8.80;4.65;;;9.60;99.90;;;;;;5044729;28;20084;-77
2022/06/02 04:01:05;;;;;;;7.40;4.55;;;9.70;99.90;;;;;;5047034;28;20049;-78
2022/06/02 04:03:37;;;;;;;8.75;4.97;;;9.70;99.90;;;;;;5042252;28;20037;-77
2022/06/02 04:06:48;;;;;;;6.18;4.55;;;9.70;99.90;;;;;;5035811;28;20037;-78
2022/06/02 04:09:27;;;;;;;7.78;4.80;;;9.80;99.90;;;;;;5053109;28;20040;-78
2022/06/02 04:15:22;;;;;;;8.82;4.57;;;9.80;99.90;;;;;;5038874;28;20490;-77
2022/06/02 04:18:12;;;;;;;6.40;4.07;;;9.80;99.90;;;;;;5046881;28;20048;-77
2022/06/02 04:21:06;;;;;;;7.13;4.03;;;9.80;99.90;;;;;;5065246;28;20049;-77
2022/06/02 04:23:38;;;;;;;5.03;3.33;;;9.90;99.90;;;;;;5045090;28;20040;-77
2022/06/02 04:26:22;;;;;;;9.20;4.13;;;9.90;99.90;;;;;;5040661;28;20041;-77
2022/06/02 04:29:15;;;;;;;6.35;3.90;;;9.90;99.90;;;;;;5040031;28;20038;-77
2022/06/02 04:31:49;;;;;;;9.18;3.72;;;10.00;99.90;;;;;;5045134;28;20057;-77
2022/06/02 04:34:46;;;;;;;5.22;3.47;;;10.00;99.90;;;;;;5044927;28;20496;-77
2022/06/02 04:37:33;;;;;;;9.02;4.80;;;10.10;99.90;;;;;;5048062;28;20041;-76
2022/06/02 04:40:20;;;;;;;5.55;3.70;;;10.10;99.90;;;;;;5049347;28;20070;-76
2022/06/02 04:42:53;;;;;;;5.15;3.17;;;10.20;99.90;;;;;;5047052;28;20053;-78
2022/06/02 04:45:42;;;;;;;6.75;3.40;;;10.20;99.90;;;;;;5040469;28;20354;-77
2022/06/02 04:48:35;;;;;;;6.22;3.58;;;10.30;99.90;;;;;;5044079;28;20101;-76
2022/06/02 04:51:42;;;;;;;6.20;3.42;;;10.30;99.90;;;;;;5032656;28;20049;-79
2022/06/02 04:54:41;;;;;;;6.55;3.35;;;10.30;99.90;;;;;;5035623;28;20054;-79
2022/06/02 04:57:44;;;;;;;6.07;3.50;;;10.40;99.90;;;;;;5046702;28;20095;-76
2022/06/02 05:00:20;;;;;;;5.55;3.10;;;10.50;99.90;;;;;;5038670;28;20048;-76
2022/06/02 05:02:52;;;;;;;4.10;2.75;;;10.50;99.90;;;;;;5042372;28;20047;-76
2022/06/02 05:05:30;;;;;;;4.88;2.72;;;10.60;99.90;;;;;;5064245;28;20093;-79
2022/06/02 05:08:20;;;;;;;5.72;3.33;;;10.60;99.90;;;;;;5036302;28;20044;-75
2022/06/02 05:11:04;;;;;;;4.10;2.88;;;10.60;99.90;;;;;;5040459;28;20631;-76
2022/06/02 05:13:47;;;;;;;6.53;3.28;;;10.70;99.90;;;;;;5043982;28;20067;-79
2022/06/02 05:16:42;;;;;;;5.20;3.10;;;10.80;99.90;;;;;;5049919;28;20047;-79
2022/06/02 05:20:01;;;;;;;5.20;3.20;;;10.80;99.90;;;;;;5046744;28;20480;-76
2022/06/02 05:22:52;;;;;;;5.25;3.00;;;10.90;99.90;;;;;;5003866;28;20673;-76
2022/06/02 05:25:36;;;;;;;4.43;2.97;;;10.90;99.90;;;;;;4978025;28;20088;-77
2022/06/02 05:28:37;;;;;;;5.65;3.15;;;10.90;99.90;;;;;;5038972;28;20053;-76
2022/06/02 05:31:38;;;;;;;7.38;3.40;;;11.00;99.90;;;;;;5042425;28;20110;-76
2022/06/02 05:34:29;;;;;;;6.15;3.13;;;11.10;99.90;;;;;;5032427;28;20045;-76
2022/06/02 05:36:58;;;;;;;3.72;2.70;;;11.10;99.90;;;;;;5040849;28;20053;-76
2022/06/02 05:40:02;;;;;;;5.63;2.80;;;11.20;99.90;;;;;;5038882;28;20060;-77
2022/06/02 05:42:45;;;;;;;5.63;2.90;;;11.30;99.90;;;;;;5027977;28;20049;-76
2022/06/02 05:45:37;;;;;;;5.20;3.30;;;11.30;99.90;;;;;;5044104;28;20045;-77
2022/06/02 05:48:31;;;;;;;5.07;2.50;;;11.40;99.90;;;;;;5068082;28;20127;-77
2022/06/02 05:51:32;;;;;;;3.97;2.60;;;11.40;99.90;;;;;;5046146;28;20199;-76
2022/06/02 05:54:07;;;;;;;;;;;11.50;99.90;;;;;;5040329;28;20068;-77
2022/06/02 05:57:13;;;;;;;3.72;2.42;;;11.50;99.90;;;;;;5044640;28;19924;-77
2022/06/02 06:00:06;;;;;;;5.30;2.85;;;11.60;99.90;;;;;;5045135;28;20876;-77
2022/06/02 06:02:34;;;;;;;9.75;4.32;;;11.70;99.90;;;;;;5076595;28;20049;-77
2022/06/02 06:05:18;;;;;;;9.73;3.60;;;11.70;99.90;;;;;;5047476;28;20044;-77
2022/06/02 06:08:07;;;;;;;11.07;3.15;;;11.80;99.90;;;;;;5043520;28;20680;-77
2022/06/02 06:10:33;;;;;;;6.95;4.20;;;11.80;99.90;;;;;;5041367;28;20082;-77
2022/06/02 06:13:39;;;;;;;5.63;2.92;;;11.90;99.90;;;;;;5036122;28;20046;-76
2022/06/02 06:16:24;;;;;;;4.95;2.42;;;11.90;99.90;;;;;;5034042;28;20049;-77
2022/06/02 06:19:16;;;;;;;7.32;2.13;;;12.00;99.90;;;;;;5041250;28;20477;-77
2022/06/02 06:21:42;;;;;;;3.40;2.13;;;12.00;99.90;;;;;;5041794;28;20060;-77
2022/06/02 06:24:38;;;;;;;6.63;2.75;;;12.10;99.90;;;;;;5036839;28;20040;-77
2022/06/02 06:27:28;;;;;;;4.38;2.33;;;12.20;99.90;;;;;;5046202;28;20045;-77
2022/06/02 06:30:09;;;;;;;5.68;2.85;;;12.30;99.90;;;;;;5046566;28;20064;-79
2022/06/02 06:32:40;;;;;;;4.53;2.17;;;12.30;99.90;;;;;;5035434;28;20053;-79
2022/06/02 06:35:12;;;;;;;7.53;2.42;;;12.30;99.90;;;;;;5044252;28;20047;-79
2022/06/02 06:38:13;;;;;;;5.43;2.50;;;12.40;99.90;;;;;;5047545;28;20052;-80
2022/06/02 06:40:57;;;;;;;2.65;1.85;;;12.50;99.90;;;;;;5032874;28;20084;-79
2022/06/02 06:43:38;;;;;;;5.55;2.80;;;12.50;99.90;;;;;;5061341;28;20102;-80
2022/06/02 06:46:31;;;;;;;9.20;2.22;;;12.60;99.90;;;;;;5036425;28;20056;-79
2022/06/02 06:49:02;;;;;;;5.40;2.28;;;12.70;99.90;;;;;;5042712;28;20107;-80
2022/06/02 06:52:09;;;;;;;7.07;2.45;;;12.70;99.90;;;;;;5040862;28;20067;-81
2022/06/02 06:55:00;;;;;;;4.85;1.98;;;12.80;99.90;;;;;;5042027;28;20247;-80
2022/06/02 06:57:45;;;;;;;4.17;1.67;;;12.80;99.90;;;;;;5038728;28;20500;-80
2022/06/02 07:00:40;;;;;;;5.38;2.17;;;13.00;99.90;;;;;;5037754;28;20300;-79
2022/06/02 07:03:27;;;;;;;11.52;2.20;;;13.00;99.90;;;;;;5032507;28;20036;-78
2022/06/02 07:06:02;;;;;;;8.98;2.25;;;13.10;99.90;;;;;;5041484;28;20136;-80
2022/06/02 07:08:48;;;;;;;5.97;2.30;;;13.20;99.90;;;;;;5042865;28;20179;-81
2022/06/02 07:14:51;;;;;;;7.22;2.00;;;13.40;99.90;;;;;;5046416;28;20076;-80
2022/06/02 07:18:02;;;;;;;4.80;2.28;;;13.40;99.90;;;;;;5041525;28;20095;-80
2022/06/02 07:20:42;;;;;;;6.35;2.15;;;13.40;99.90;;;;;;5020873;28;20072;-79
2022/06/02 07:23:16;;;;;;;4.43;1.80;;;13.50;99.90;;;;;;5030266;28;20045;-80
2022/06/02 07:26:11;;;;;;;6.35;2.00;;;13.50;99.90;;;;;;5047003;28;20049;-80
2022/06/02 07:29:05;;;;;;;3.78;1.52;;;13.60;99.90;;;;;;5048298;28;20094;-81
2022/06/02 07:31:30;;;;;;;4.90;1.88;;;13.60;99.90;;;;;;5042059;28;20080;-80
2022/06/02 07:34:15;;;;;;;3.92;1.60;;;13.60;99.90;;;;;;5036954;28;20359;-81
2022/06/02 07:37:04;;;;;;;8.50;2.35;;;13.70;99.90;;;;;;5039706;28;20711;-81
2022/06/02 07:40:00;;;;;;;8.00;1.73;;;13.80;99.90;;;;;;5041144;28;20400;-81
2022/06/02 07:42:38;;;;;;;5.20;1.73;;;13.80;99.90;;;;;;5036324;28;20120;-80
2022/06/02 07:45:20;;;;;;;3.00;1.50;;;13.80;99.90;;;;;;5035384;28;20186;-80
2022/06/02 07:48:25;;;;;;;11.25;1.73;;;13.90;99.90;;;;;;5050456;28;20048;-80
2022/06/02 07:51:13;;;;;;;4.03;1.30;;;13.90;99.90;;;;;;5048301;28;20044;-80
2022/06/02 07:53:54;;;;;;;3.92;1.30;;;14.00;99.90;;;;;;5049632;28;20056;-79
2022/06/02 07:56:45;;;;;;;8.15;1.63;;;14.00;99.90;;;;;;5050248;28;20049;-80
2022/06/02 07:59:11;;;;;;;6.32;1.48;;;14.10;99.90;;;;;;5044885;28;20079;-80
2022/06/02 08:01:58;;;;;;;4.95;1.48;;;14.10;99.90;;;;;;5049701;28;20540;-80
2022/06/02 08:04:48;;;;;;;4.30;1.45;;;14.10;99.90;;;;;;5050161;28;20138;-80
2022/06/02 08:07:38;;;;;;;4.32;1.60;;;14.20;99.90;;;;;;5050615;28;20056;-80
2022/06/02 08:10:14;;;;;;;6.40;1.92;;;14.20;99.90;;;;;;5049509;28;20040;-80
2022/06/02 08:12:47;;;;;;;6.07;1.50;;;14.30;99.90;;;;;;5049605;28;20037;-79
2022/06/02 08:15:28;;;;;;;9.02;1.80;;;14.30;99.90;;;;;;5046225;28;20493;-79
2022/06/02 08:18:16;;;;;;;4.93;1.45;;;14.40;99.90;;;;;;5050133;28;20041;-80
2022/06/02 08:21:15;;;;;;;7.25;1.45;;;14.50;99.90;;;;;;5040060;28;20114;-79
2022/06/02 08:24:18;;;;;;;7.07;1.40;;;14.50;99.90;;;;;;5050070;28;20041;-80
2022/06/02 08:26:56;;;;;;;9.82;1.35;;;14.60;99.90;;;;;;5045802;28;20029;-80
2022/06/02 08:29:34;;;;;;;4.40;1.50;;;14.70;99.90;;;;;;5050337;28;20041;-80
2022/06/02 08:32:09;;;;;;;4.72;1.73;;;14.70;99.90;;;;;;5037232;28;20100;-81
2022/06/02 08:34:46;;;;;;;4.68;1.50;;;14.70;99.90;;;;;;5032095;28;20061;-81
2022/06/02 08:37:51;;;;;;;3.10;1.15;;;14.80;99.90;;;;;;5049156;28;20148;-79
2022/06/02 08:40:55;;;;;;;3.67;1.88;;;14.80;99.90;;;;;;5033569;28;20065;-80
2022/06/02 08:43:51;;;;;;;9.73;1.58;;;14.80;99.90;;;;;;5038034;28;20049;-81
2022/06/02 08:46:50;;;;;;;4.13;1.35;;;14.80;99.90;;;;;;5049647;28;20064;-81
2022/06/02 08:49:57;;;;;;;3.42;1.48;;;14.80;99.90;;;;;;5049747;28;20132;-80
2022/06/02 08:52:51;;;;;;;3.75;1.67;;;14.80;99.90;;;;;;5048534;28;20119;-80
2022/06/02 08:55:35;;;;;;;5.47;1.58;;;14.90;99.90;;;;;;5050176;28;20552;-80
2022/06/02 08:58:22;;;;;;;3.15;1.17;;;14.90;99.90;;;;;;5049207;28;20052;-81
2022/06/02 09:01:11;;;;;;;5.45;1.35;;;14.90;99.90;;;;;;5048487;28;20106;-81
2022/06/02 09:04:05;;;;;;;3.00;1.30;;;15.00;99.90;;;;;;5046976;28;20051;-81
2022/06/02 09:07:03;;;;;;;4.15;1.73;;;15.00;99.90;;;;;;5073777;28;20051;-81
2022/06/02 09:09:50;;;;;;;4.78;1.63;;;15.10;99.90;;;;;;5049182;28;20087;-80
2022/06/02 09:12:38;;;;;;;3.88;1.40;;;15.10;99.90;;;;;;5046719;28;20128;-80
2022/06/02 09:15:16;;;;;;;4.38;1.60;;;15.20;99.90;;;;;;5046480;28;20044;-81
2022/06/02 09:18:09;;;;;;;3.20;1.70;;;15.20;99.90;;;;;;5048196;28;20128;-81
2022/06/02 09:21:09;;;;;;;5.10;1.27;;;15.30;99.90;;;;;;5050858;28;20052;-81
2022/06/02 09:24:04;;;;;;;4.60;1.20;;;15.40;99.90;;;;;;5048185;28;20155;-80
2022/06/02 09:26:42;;;;;;;6.38;1.60;;;15.40;99.90;;;;;;5047902;28;20053;-81
2022/06/02 09:29:16;;;;;;;7.53;1.63;;;15.50;99.90;;;;;;5050479;28;20057;-81
2022/06/02 09:32:00;;;;;;;5.03;1.60;;;15.60;99.90;;;;;;5048001;28;20052;-80
2022/06/02 09:34:43;;;;;;;4.60;1.27;;;15.60;99.90;;;;;;5035312;28;20144;-81
2022/06/02 09:37:45;;;;;;;4.90;1.38;;;15.60;99.90;;;;;;5048708;28;20037;-81
2022/06/02 09:40:48;;;;;;;3.78;1.80;;;15.70;99.90;;;;;;5050282;28;20044;-80
2022/06/02 09:43:46;;;;;;;4.95;1.30;;;15.80;99.90;;;;;;5047123;28;20408;-80
2022/06/02 09:46:26;;;;;;;3.33;1.35;;;15.80;99.90;;;;;;5043938;28;20040;-80
2022/06/02 09:49:13;;;;;;;7.10;1.60;;;15.80;99.90;;;;;;5058838;28;20041;-80
2022/06/02 09:52:06;;;;;;;5.50;1.73;;;15.80;99.90;;;;;;5030483;28;20139;-79
2022/06/02 09:54:41;;;;;;;4.80;1.50;;;15.90;99.90;;;;;;5047201;28;20140;-80
2022/06/02 10:00:37;;;;;;;6.63;1.38;;;15.90;99.90;;;;;;5050003;28;20470;-80
2022/06/02 10:03:44;;;;;;;10.43;1.60;;;15.90;99.90;;;;;;5047937;28;20175;-79
2022/06/02 10:06:41;;;;;;;10.68;2.03;;;16.00;99.90;;;;;;5028831;28;20188;-79
2022/06/02 10:09:33;;;;;;;5.82;1.65;;;16.00;99.90;;;;;;5046817;28;20155;-80
2022/06/02 10:15:35;;;;;;;4.80;1.30;;;16.00;99.90;;;;;;5049850;28;20129;-79
2022/06/02 10:18:16;;;;;;;8.68;1.45;;;16.10;99.90;;;;;;5047479;28;20048;-80
2022/06/02 10:21:12;;;;;;;37.25;2.80;;;16.30;99.90;;;;;;5046727;28;20036;-81
2022/06/02 10:24:18;;;;;;;3.90;1.27;;;16.30;99.90;;;;;;5048693;28;20044;-80
2022/06/02 10:27:28;;;;;;;10.98;2.90;;;16.30;99.90;;;;;;5045234;28;20037;-81
2022/06/02 10:30:12;;;;;;;4.50;1.85;;;16.40;99.90;;;;;;5001307;28;20140;-80
2022/06/02 10:32:46;;;;;;;2.95;1.40;;;16.50;99.90;;;;;;5044099;28;20062;-82
2022/06/02 10:35:25;;;;;;;5.35;1.40;;;16.50;99.90;;;;;;5044982;28;20041;-82
2022/06/02 10:37:58;;;;;;;2.30;1.15;;;16.60;99.90;;;;;;5048463;28;20049;-81
2022/06/02 10:40:46;;;;;;;39.28;3.88;;;16.70;99.90;;;;;;5047773;28;20040;-82
2022/06/02 10:43:39;;;;;;;4.20;1.48;;;16.80;99.90;;;;;;5037129;28;20132;-81
2022/06/02 10:46:20;;;;;;;6.05;1.60;;;16.80;99.90;;;;;;5046692;28;20473;-81
2022/06/02 10:48:57;;;;;;;3.10;1.60;;;16.80;99.90;;;;;;5046086;28;20079;-81
2022/06/02 10:52:14;;;;;;;3.83;1.60;;;16.90;99.90;;;;;;5047126;28;20127;-81
2022/06/02 10:55:17;;;;;;;4.53;1.50;;;17.00;99.90;;;;;;5012817;28;20044;-81
2022/06/02 10:57:58;;;;;;;5.22;1.80;;;17.10;99.90;;;;;;5029145;28;20107;-81
2022/06/02 11:01:06;;;;;;;5.40;1.80;;;17.20;99.90;;;;;;5039143;28;20091;-80
2022/06/02 11:04:00;;;;;;;2.47;1.20;;;17.20;99.90;;;;;;5014563;28;20052;-81
2022/06/02 11:06:54;;;;;;;6.43;2.17;;;17.20;99.90;;;;;;5044717;28;20048;-81
2022/06/02 11:09:25;;;;;;;6.10;1.75;;;17.10;99.90;;;;;;5048522;28;20111;-78
2022/06/02 11:11:57;;;;;;;;;;;17.10;99.90;;;;;;5046967;28;20124;-81
2022/06/02 11:14:22;;;;;;;;;;;17.00;99.90;;;;;;5080529;28;19927;-81
2022/06/02 11:17:13;;;;;;;2.55;1.48;;;16.90;99.90;;;;;;5046276;28;19924;-81
2022/06/02 11:20:20;;;;;;;4.40;2.00;;;17.00;99.90;;;;;;5077334;28;20484;-81
2022/06/02 11:23:08;;;;;;;6.65;1.95;;;17.20;99.90;;;;;;5046368;28;20060;-80
2022/06/02 11:26:07;;;;;;;5.82;1.98;;;17.40;99.90;;;;;;5044798;28;20053;-79
2022/06/02 11:29:09;;;;;;;5.32;1.70;;;17.60;99.90;;;;;;5076880;28;20155;-81
2022/06/02 11:31:53;;;;;;;;;;;17.70;99.90;;;;;;5036698;28;20041;-81
2022/06/02 11:34:37;;;;;;;3.70;1.50;;;17.80;99.90;;;;;;5046844;28;19921;-81
2022/06/02 11:37:18;;;;;;;8.15;1.75;;;17.90;99.90;;;;;;5033070;28;20053;-80
2022/06/02 11:39:56;;;;;;;2.67;1.58;;;17.90;99.90;;;;;;5047744;28;20051;-80
2022/06/02 11:42:43;;;;;;;6.00;1.70;;;18.00;99.90;;;;;;5044499;28;20044;-79
2022/06/02 11:45:11;;;;;;;4.55;1.70;;;18.10;99.90;;;;;;5046647;28;20052;-80
2022/06/02 11:48:03;;;;;;;4.13;1.85;;;18.10;99.90;;;;;;5028145;28;20430;-80
2022/06/02 11:50:49;;;;;;;5.45;1.60;;;18.00;99.90;;;;;;5037221;28;20045;-80
2022/06/02 11:53:37;;;;;;;2.38;1.48;;;18.00;99.90;;;;;;5037556;28;20049;-81
2022/06/02 11:56:17;;;;;;;3.35;1.60;;;18.10;99.90;;;;;;5038360;28;20194;-81
2022/06/02 11:59:06;;;;;;;6.00;2.30;;;18.20;99.90;;;;;;5027247;28;20518;-80
2022/06/02 12:01:56;;;;;;;3.90;1.80;;;18.30;99.90;;;;;;5038919;28;20040;-81
2022/06/02 12:04:56;;;;;;;4.00;2.00;;;18.40;99.90;;;;;;5047127;28;20071;-81
2022/06/02 12:07:44;;;;;;;6.25;1.77;;;18.50;99.90;;;;;;5060951;28;20565;-81
2022/06/02 12:10:45;;;;;;;8.52;1.77;;;18.60;99.90;;;;;;5046605;28;20060;-81
2022/06/02 12:13:28;;;;;;;7.63;1.75;;;18.60;99.90;;;;;;5030660;28;20417;-80
2022/06/02 12:16:11;;;;;;;5.82;1.75;;;18.60;99.90;;;;;;5031456;28;20346;-80
2022/06/02 12:18:40;;;;;;;4.30;1.52;;;18.50;99.90;;;;;;5044456;28;20045;-81
2022/06/02 12:21:27;;;;;;;2.85;1.42;;;18.50;99.90;;;;;;5047814;28;20396;-80
2022/06/02 12:24:19;;;;;;;4.53;1.50;;;18.60;99.90;;;;;;5061612;28;20486;-80
2022/06/02 12:26:57;;;;;;;3.42;1.27;;;18.70;99.90;;;;;;5032833;28;20040;-80
2022/06/02 12:29:54;;;;;;;2.85;1.40;;;18.70;99.90;;;;;;5049355;28;20064;-80
2022/06/02 12:32:34;;;;;;;4.75;1.27;;;18.80;99.90;;;;;;5047046;28;20037;-81
2022/06/02 12:35:28;;;;;;;7.38;1.55;;;18.90;99.90;;;;;;5050585;28;20059;-80
2022/06/02 12:38:06;;;;;;;4.32;1.60;;;18.80;99.90;;;;;;5050133;28;20045;-80
2022/06/02 12:41:02;;;;;;;4.00;1.33;;;18.80;99.90;;;;;;5050814;28;20492;-80
2022/06/02 12:43:37;;;;;;;5.78;1.40;;;18.80;99.90;;;;;;5050059;28;20141;-80
2022/06/02 12:46:09;;;;;;;8.07;1.67;;;18.90;99.90;;;;;;5043604;28;20045;-81
2022/06/02 12:48:56;;;;;;;4.38;1.20;;;19.00;99.90;;;;;;5049830;28;20036;-80
2022/06/02 12:51:38;;;;;;;3.90;1.35;;;19.10;99.90;;;;;;5048888;28;20255;-80
2022/06/02 12:54:26;;;;;;;7.20;1.33;;;19.00;99.90;;;;;;5038546;28;20060;-80
2022/06/02 12:56:55;;;;;;;5.20;2.20;;;18.90;99.90;;;;;;5049555;28;20037;-80
2022/06/02 12:59:54;;;;;;;2.60;1.55;;;18.80;99.90;;;;;;5051750;28;20102;-78
2022/06/02 13:03:05;;;;;;;4.97;1.50;;;18.80;99.60;;;;;;5040205;28;20045;-80
2022/06/02 13:05:56;;;;;;;4.28;1.52;;;18.80;99.90;;;;;;5048999;28;20037;-80
2022/06/02 13:08:28;;;;;;;;;;;18.80;99.90;;;;;;5047469;28;20075;-79
2022/06/02 13:11:23;;;;;;;3.97;1.50;;;18.90;99.90;;;;;;5083399;28;20380;-80
2022/06/02 13:14:41;;;;;;;5.80;1.50;;;19.00;99.90;;;;;;5041590;28;20069;-80
2022/06/02 13:17:17;;;;;;;4.88;1.30;;;19.00;99.90;;;;;;5046394;28;20139;-80
2022/06/02 13:20:11;;;;;;;3.47;1.58;;;19.00;99.90;;;;;;5049057;28;20041;-79
2022/06/02 13:22:54;;;;;;;3.88;1.42;;;19.00;99.40;;;;;;5048789;28;20118;-80
2022/06/02 13:25:32;;;;;;;5.65;1.58;;;19.00;98.50;;;;;;5047096;28;20601;-79
2022/06/02 13:28:26;;;;;;;4.30;1.30;;;18.90;98.00;;;;;;5050268;28;20052;-81
2022/06/02 13:31:00;;;;;;;4.20;1.70;;;18.80;98.30;;;;;;5036114;28;20049;-81
2022/06/02 13:33:26;;;;;;;2.35;1.35;;;18.90;98.90;;;;;;5048127;28;20232;-79
2022/06/02 13:36:33;;;;;;;5.07;1.60;;;18.90;98.60;;;;;;5048813;28;20135;-79
2022/06/02 13:39:11;;;;;;;4.35;1.50;;;18.80;98.40;;;;;;5005987;28;20061;-79
2022/06/02 13:42:13;;;;;;;3.08;1.63;;;18.80;98.60;;;;;;5040477;28;20477;-79
2022/06/02 13:45:17;;;;;;;7.53;1.60;;;18.90;98.50;;;;;;5048723;28;20076;-80
2022/06/02 13:48:01;;;;;;;5.50;1.48;;;18.80;98.90;;;;;;5049375;28;20400;-79
2022/06/02 13:50:58;;;;;;;8.45;1.58;;;18.90;99.30;;;;;;5047766;28;20040;-79
2022/06/02 13:57:30;;;;;;;2.97;1.17;;;19.00;99.00;;;;;;5047336;28;20068;-79
2022/06/02 13:57:38;;;;;;;3.30;1.40;;;18.90;98.90;;;;;;5035959;28;20394;-79
2022/06/02 14:00:22;;;;;;;2.67;1.35;;;18.80;99.40;;;;;;5036005;28;20057;-79
2022/06/02 14:03:17;;;;;;;4.90;1.50;;;18.90;99.40;;;;;;5047041;28;20056;-81
2022/06/02 14:06:07;;;;;;;4.82;1.48;;;19.00;99.70;;;;;;5049453;28;20116;-80
2022/06/02 14:09:02;;;;;;;7.97;1.85;;;19.10;99.70;;;;;;5028865;28;20454;-80
2022/06/02 14:11:52;;;;;;;3.53;1.63;;;19.20;99.90;;;;;;5040789;28;20041;-80
2022/06/02 14:14:27;;;;;;;9.10;1.85;;;19.30;99.10;;;;;;5048428;28;20048;-81
2022/06/02 14:17:20;;;;;;;8.00;1.63;;;19.20;98.60;;;;;;5044737;28;20056;-80
2022/06/02 14:19:55;;;;;;;5.38;1.23;;;19.20;99.00;;;;;;5035452;28;20088;-80
2022/06/02 14:23:09;;;;;;;3.55;1.67;;;19.20;99.50;;;;;;5046858;28;20350;-80
2022/06/02 14:25:34;;;;;;;2.88;1.10;;;19.30;99.90;;;;;;5048430;28;20433;-79
2022/06/02 14:28:12;;;;;;;3.67;1.52;;;19.40;99.50;;;;;;5044303;28;20110;-80
2022/06/02 14:30:52;;;;;;;6.43;1.33;;;19.50;99.40;;;;;;5048204;28;20052;-79
2022/06/02 14:33:26;;;;;;;5.03;1.50;;;19.50;99.10;;;;;;5045700;28;20234;-80
2022/06/02 14:35:58;;;;;;;4.93;1.63;;;19.50;99.40;;;;;;5028740;28;20444;-81
2022/06/02 14:38:32;;;;;;;5.80;1.48;;;19.60;99.50;;;;;;5028771;28;20124;-80
2022/06/02 14:41:13;;;;;;;6.32;1.90;;;19.70;99.40;;;;;;5047073;28;20040;-80
2022/06/02 14:43:51;;;;;;;4.28;1.20;;;19.80;99.60;;;;;;5061204;28;20704;-79
2022/06/02 14:46:44;;;;;;;3.95;1.33;;;20.10;99.40;;;;;;5040442;28;20054;-80
2022/06/02 14:49:42;;;;;;;7.43;1.48;;;20.30;98.80;;;;;;5045093;28;20053;-79